createdAt,value
2023-03-20T00:01:17.992Z,57.33
2023-03-20T00:03:46.022Z,58.24
2023-03-20T00:06:17.748Z,58.66
2023-03-20T00:08:46.983Z,58.00
2023-03-20T00:11:28.885Z,57.99
2023-03-20T00:13:57.994Z,58.56
2023-03-20T00:16:28.529Z,59.49
2023-03-20T00:18:56.716Z,58.49
2023-03-20T00:21:26.536Z,58.29
2023-03-20T00:23:54.831Z,59.93
2023-03-20T00:26:24.597Z,58.96
2023-03-20T00:28:52.593Z,59.75
2023-03-20T00:31:24.824Z,59.41
2023-03-20T00:33:53.057Z,59.06
2023-03-20T00:36:21.087Z,59.20
2023-03-20T00:38:50.662Z,59.21
2023-03-20T00:41:26.676Z,58.86
2023-03-20T00:43:56.553Z,59.35
2023-03-20T00:46:24.900Z,59.37
2023-03-20T00:48:53.109Z,59.83
2023-03-20T00:51:20.988Z,59.46
2023-03-20T00:53:50.348Z,59.16
2023-03-20T00:56:30.239Z,58.89
2023-03-20T00:58:58.454Z,58.33
2023-03-20T01:01:26.382Z,58.71
2023-03-20T01:03:54.391Z,58.48
2023-03-20T01:06:22.317Z,58.31
2023-03-20T01:08:51.709Z,58.87
2023-03-20T01:11:23.224Z,58.14
2023-03-20T01:13:52.442Z,58.28
2023-03-20T01:16:23.066Z,58.11
2023-03-20T01:18:51.172Z,58.41
2023-03-20T01:21:19.049Z,58.01
2023-03-20T01:23:47.023Z,58.24
2023-03-20T01:26:31.695Z,57.85
2023-03-20T01:28:59.868Z,57.78
2023-03-20T01:31:27.796Z,57.47
2023-03-20T01:33:55.777Z,58.11
2023-03-20T01:36:25.061Z,57.90
2023-03-20T01:38:55.895Z,57.44
2023-03-20T01:41:26.605Z,57.22
2023-03-20T01:43:54.856Z,57.52
2023-03-20T01:46:25.260Z,57.57
2023-03-20T01:49:01.848Z,57.32
2023-03-20T01:51:31.120Z,57.79
2023-03-20T01:54:01.488Z,57.75
2023-03-20T01:56:31.761Z,57.56
2023-03-20T01:59:01.656Z,57.42
2023-03-20T02:01:30.373Z,57.49
2023-03-20T02:03:58.771Z,57.45
2023-03-20T02:06:27.043Z,58.08
2023-03-20T02:08:55.437Z,58.08
2023-03-20T02:11:25.057Z,58.17
2023-03-20T02:13:55.555Z,57.55
2023-03-20T02:16:23.554Z,57.81
2023-03-20T02:18:53.310Z,57.36
2023-03-20T02:21:48.433Z,57.38
2023-03-20T02:24:31.973Z,57.57
2023-03-20T02:27:05.551Z,57.18
2023-03-20T02:29:47.198Z,57.33
2023-03-20T02:32:32.619Z,57.19
2023-03-20T02:35:19.281Z,57.29
2023-03-20T02:37:59.602Z,56.72
2023-03-20T02:40:32.269Z,57.06
2023-03-20T02:43:04.671Z,56.96
2023-03-20T02:45:36.618Z,57.20
2023-03-20T02:48:12.715Z,56.77
2023-03-20T02:50:47.401Z,56.60
2023-03-20T02:53:22.413Z,56.38
2023-03-20T02:55:55.946Z,56.39
2023-03-20T02:58:26.075Z,56.26
2023-03-20T03:00:59.290Z,56.24
2023-03-20T03:03:30.215Z,56.16
2023-03-20T03:06:01.674Z,56.02
2023-03-20T03:08:35.111Z,56.19
2023-03-20T03:11:05.543Z,55.99
2023-03-20T03:13:35.323Z,56.05
2023-03-20T03:16:05.791Z,56.33
2023-03-20T03:18:36.198Z,56.43
2023-03-20T03:21:05.149Z,56.01
2023-03-20T03:23:37.470Z,55.90
2023-03-20T03:26:07.594Z,55.39
2023-03-20T03:28:39.157Z,55.22
2023-03-20T03:31:08.465Z,55.55
2023-03-20T03:33:38.446Z,55.50
2023-03-20T03:36:10.539Z,55.05
2023-03-20T03:38:44.770Z,55.17
2023-03-20T03:41:19.345Z,55.03
2023-03-20T03:43:51.634Z,54.72
2023-03-20T03:46:23.991Z,54.53
2023-03-20T03:48:53.954Z,54.63
2023-03-20T03:51:24.102Z,54.18
2023-03-20T03:53:56.478Z,54.18
2023-03-20T03:56:27.414Z,53.55
2023-03-20T03:58:58.289Z,53.38
2023-03-20T04:01:28.065Z,53.18
2023-03-20T04:03:59.102Z,52.38
2023-03-20T04:06:28.186Z,52.46
2023-03-20T04:08:57.560Z,52.33
2023-03-20T04:11:26.519Z,51.82
2023-03-20T04:13:55.140Z,51.46
2023-03-20T04:16:23.978Z,51.10
2023-03-20T04:18:52.222Z,50.92
2023-03-20T04:21:20.790Z,49.91
2023-03-20T04:23:48.960Z,49.40
2023-03-20T04:26:18.432Z,49.76
2023-03-20T04:28:46.687Z,49.38
2023-03-20T04:31:14.746Z,48.71
2023-03-20T04:33:43.274Z,47.90
2023-03-20T04:36:11.390Z,47.30
2023-03-20T04:38:39.340Z,47.91
2023-03-20T04:41:08.210Z,47.36
2023-03-20T04:43:37.565Z,47.54
2023-03-20T04:46:05.852Z,47.34
2023-03-20T04:48:33.773Z,47.10
2023-03-20T04:51:01.878Z,46.72
2023-03-20T04:53:29.924Z,46.34
2023-03-20T04:56:00.008Z,46.42
2023-03-20T04:58:29.360Z,46.07
2023-03-20T05:00:58.798Z,45.59
2023-03-20T05:03:27.856Z,44.41
2023-03-20T05:05:55.938Z,43.00
2023-03-20T05:08:23.944Z,43.90
2023-03-20T05:10:51.964Z,44.22
2023-03-20T05:13:19.997Z,44.40
2023-03-20T05:15:48.046Z,43.93
2023-03-20T05:18:17.670Z,43.47
2023-03-20T05:20:45.870Z,42.78
2023-03-20T05:23:13.900Z,43.47
2023-03-20T05:25:42.040Z,43.23
2023-03-20T05:28:09.986Z,43.44
2023-03-20T05:30:38.143Z,43.49
2023-03-20T05:33:06.271Z,43.35
2023-03-20T05:35:36.059Z,43.51
2023-03-20T05:38:04.371Z,43.67
2023-03-20T05:40:32.300Z,43.49
2023-03-20T05:43:00.202Z,42.43
2023-03-20T05:45:28.868Z,42.63
2023-03-20T05:47:57.126Z,41.65
2023-03-20T05:50:25.377Z,41.78
2023-03-20T05:52:55.015Z,41.93
2023-03-20T05:55:22.993Z,41.07
2023-03-20T05:57:51.053Z,40.84
2023-03-20T06:00:19.416Z,40.70
2023-03-20T06:02:47.805Z,40.67
2023-03-20T06:05:16.197Z,40.78
2023-03-20T06:07:44.558Z,41.26
2023-03-20T06:10:14.070Z,41.61
2023-03-20T06:12:42.220Z,41.79
2023-03-20T06:15:10.620Z,41.62
2023-03-20T06:17:38.770Z,41.82
2023-03-20T06:20:07.388Z,41.61
2023-03-20T06:22:35.739Z,41.68
2023-03-20T06:25:03.972Z,42.06
2023-03-20T06:27:36.630Z,41.88
2023-03-20T06:30:05.004Z,41.82
2023-03-20T06:32:33.629Z,41.88
2023-03-20T06:35:01.693Z,41.86
2023-03-20T06:37:29.651Z,41.71
2023-03-20T06:39:57.581Z,41.60
2023-03-20T06:42:25.640Z,41.35
2023-03-20T06:44:55.141Z,41.41
2023-03-20T06:47:23.175Z,41.09
2023-03-20T06:49:51.160Z,40.97
2023-03-20T06:52:20.208Z,40.58
2023-03-20T06:54:48.894Z,40.29
2023-03-20T06:57:17.841Z,39.83
2023-03-20T06:59:46.112Z,39.34
2023-03-20T07:02:16.444Z,39.01
2023-03-20T07:04:44.432Z,38.85
2023-03-20T07:07:12.906Z,39.20
2023-03-20T07:09:40.978Z,39.61
2023-03-20T07:12:11.714Z,39.26
2023-03-20T07:14:40.228Z,37.94
2023-03-20T07:17:09.142Z,38.56
2023-03-20T07:19:38.430Z,38.33
2023-03-20T07:22:08.306Z,37.29
2023-03-20T07:24:36.359Z,37.95
2023-03-20T07:27:04.435Z,38.38
2023-03-20T07:29:32.311Z,38.10
2023-03-20T07:32:02.410Z,38.21
2023-03-20T07:34:30.983Z,37.87
2023-03-20T07:37:00.234Z,38.11
2023-03-20T07:39:28.442Z,38.24
2023-03-20T07:41:56.511Z,38.53
2023-03-20T07:44:24.479Z,38.12
2023-03-20T07:46:52.629Z,37.91
2023-03-20T07:49:21.291Z,37.91
2023-03-20T07:51:49.658Z,37.56
2023-03-20T07:54:19.086Z,37.22
2023-03-20T07:56:47.275Z,36.84
2023-03-20T07:59:15.321Z,36.07
2023-03-20T08:01:43.405Z,35.87
2023-03-20T08:04:11.580Z,36.02
2023-03-20T08:06:40.412Z,36.25
2023-03-20T08:09:08.903Z,35.84
2023-03-20T08:11:38.256Z,35.89
2023-03-20T08:14:06.371Z,35.60
2023-03-20T08:16:34.504Z,35.46
2023-03-20T08:19:03.429Z,34.82
2023-03-20T08:21:31.840Z,33.33
2023-03-20T08:23:59.918Z,33.22
2023-03-20T08:26:27.900Z,32.50
2023-03-20T08:28:57.570Z,32.72
2023-03-20T08:31:26.061Z,32.89
2023-03-20T08:33:54.025Z,32.96
2023-03-20T08:36:22.193Z,32.91
2023-03-20T08:38:50.850Z,32.19
2023-03-20T08:41:19.189Z,31.65
2023-03-20T08:43:47.944Z,31.67
2023-03-20T08:46:17.446Z,32.05
2023-03-20T08:48:45.672Z,31.98
2023-03-20T08:51:13.584Z,32.18
2023-03-20T08:53:41.476Z,32.29
2023-03-20T08:56:10.444Z,32.23
2023-03-20T08:58:38.399Z,32.01
2023-03-20T09:01:06.711Z,31.82
2023-03-20T09:03:36.421Z,30.65
2023-03-20T09:06:06.620Z,30.67
2023-03-20T09:08:34.669Z,30.90
2023-03-20T09:11:03.323Z,31.46
2023-03-20T09:13:31.258Z,32.01
2023-03-20T09:15:59.460Z,31.78
2023-03-20T09:18:27.650Z,31.80
2023-03-20T09:20:57.702Z,31.84
2023-03-20T09:23:27.571Z,31.55
2023-03-20T09:25:55.636Z,31.76
2023-03-20T09:28:26.781Z,31.92
2023-03-20T09:30:56.496Z,32.02
2023-03-20T09:33:24.932Z,31.60
2023-03-20T09:35:52.917Z,31.46
2023-03-20T09:38:22.421Z,31.21
2023-03-20T09:40:52.617Z,31.24
2023-03-20T09:43:44.635Z,30.65
2023-03-20T09:46:20.979Z,31.31
2023-03-20T09:48:54.250Z,31.33
2023-03-20T09:51:25.636Z,31.31
2023-03-20T09:54:01.347Z,31.22
2023-03-20T09:56:30.680Z,31.05
2023-03-20T09:59:00.002Z,30.94
2023-03-20T10:01:30.846Z,30.48
2023-03-20T10:03:59.936Z,30.56
2023-03-20T10:06:28.105Z,30.36
2023-03-20T10:08:58.450Z,30.66
2023-03-20T10:11:41.446Z,30.71
2023-03-20T10:14:16.733Z,31.03
2023-03-20T10:16:52.739Z,30.61
2023-03-20T10:19:24.452Z,31.02
2023-03-20T10:21:57.426Z,30.92
2023-03-20T10:24:30.000Z,30.85
2023-03-20T10:29:52.893Z,30.70
2023-03-20T10:32:24.935Z,30.62
2023-03-20T10:34:58.547Z,29.90
2023-03-20T10:37:32.832Z,29.88
2023-03-20T10:40:10.932Z,29.92
2023-03-20T10:42:42.013Z,29.18
2023-03-20T10:45:28.960Z,28.74
2023-03-20T10:47:58.164Z,28.08
2023-03-20T10:50:30.360Z,27.34
2023-03-20T10:52:59.247Z,26.46
2023-03-20T10:55:30.851Z,25.62
2023-03-20T10:58:01.286Z,26.31
2023-03-20T11:00:29.362Z,26.22
2023-03-20T11:02:57.404Z,26.26
2023-03-20T11:05:27.577Z,25.81
2023-03-20T11:08:03.082Z,24.12
2023-03-20T11:10:33.930Z,24.25
2023-03-20T11:13:15.405Z,24.61
2023-03-20T11:15:43.753Z,24.45
2023-03-20T11:18:14.244Z,25.06
2023-03-20T11:20:46.040Z,24.81
2023-03-20T11:23:16.529Z,24.07
2023-03-20T11:25:51.703Z,24.40
2023-03-20T11:28:26.952Z,22.18
2023-03-20T11:31:05.726Z,21.30
2023-03-20T11:33:35.040Z,20.98
2023-03-20T11:36:03.187Z,19.56
2023-03-20T11:38:32.515Z,20.79
2023-03-20T11:41:05.973Z,21.30
2023-03-20T11:43:39.056Z,21.46
2023-03-20T11:46:11.451Z,21.26
2023-03-20T11:48:40.864Z,20.43
2023-03-20T11:51:10.027Z,20.87
2023-03-20T11:53:40.814Z,20.50
2023-03-20T11:56:12.298Z,20.77
2023-03-20T11:58:48.382Z,20.18
2023-03-20T12:01:16.506Z,20.04
2023-03-20T12:03:47.018Z,19.35
2023-03-20T12:06:19.244Z,19.60
2023-03-20T12:08:53.187Z,19.70
2023-03-20T12:11:32.958Z,19.35
2023-03-20T12:14:02.898Z,19.03
2023-03-20T12:16:31.174Z,19.11
2023-03-20T12:19:01.549Z,19.18
2023-03-20T12:21:34.664Z,19.25
2023-03-20T12:24:05.588Z,19.02
2023-03-20T12:26:36.338Z,18.42
2023-03-20T12:29:06.649Z,18.62
2023-03-20T12:31:38.268Z,18.23
2023-03-20T12:34:10.644Z,18.25
2023-03-20T12:36:40.556Z,18.44
2023-03-20T12:39:13.378Z,18.23
2023-03-20T12:41:48.518Z,17.72
2023-03-20T12:44:28.549Z,17.51
2023-03-20T12:47:03.295Z,17.10
2023-03-20T12:49:34.712Z,17.13
2023-03-20T12:52:08.514Z,16.96
2023-03-20T12:54:43.893Z,17.46
2023-03-20T12:57:19.342Z,17.06
2023-03-20T12:59:55.106Z,17.68
2023-03-20T13:02:30.218Z,17.18
2023-03-20T13:05:05.582Z,16.98
2023-03-20T13:07:42.612Z,17.45
2023-03-20T13:10:19.525Z,17.76
2023-03-20T13:12:54.224Z,17.75
2023-03-20T13:15:31.543Z,17.86
2023-03-20T13:18:02.228Z,17.48
2023-03-20T13:20:32.337Z,17.67
2023-03-20T13:23:15.293Z,17.58
2023-03-20T13:25:53.827Z,18.12
2023-03-20T13:28:31.196Z,17.79
2023-03-20T13:31:04.248Z,17.92
2023-03-20T13:33:41.097Z,17.80
2023-03-20T13:36:17.380Z,18.00
2023-03-20T13:38:49.166Z,18.00
2023-03-20T13:41:17.624Z,18.33
2023-03-20T13:43:49.363Z,18.42
2023-03-20T13:46:20.222Z,18.23
2023-03-20T13:48:48.421Z,17.97
2023-03-20T13:51:22.167Z,18.11
2023-03-20T13:53:55.390Z,17.99
2023-03-20T13:56:27.660Z,17.80
2023-03-20T13:59:12.699Z,18.13
2023-03-20T14:01:47.507Z,18.59
2023-03-20T14:04:17.856Z,19.11
2023-03-20T14:06:49.095Z,19.73
2023-03-20T14:09:27.724Z,19.67
2023-03-20T14:11:57.268Z,20.46
2023-03-20T14:14:29.180Z,21.04
2023-03-20T14:17:04.491Z,21.90
2023-03-20T14:19:32.461Z,22.38
2023-03-20T14:22:00.718Z,22.72
2023-03-20T14:24:28.950Z,23.27
2023-03-20T14:26:58.813Z,23.67
2023-03-20T14:29:36.501Z,23.94
2023-03-20T14:32:19.332Z,24.25
2023-03-20T14:34:48.577Z,24.89
2023-03-20T14:37:29.184Z,25.31
2023-03-20T14:40:01.570Z,25.85
2023-03-20T14:42:41.631Z,26.07
2023-03-20T14:45:24.309Z,26.46
2023-03-20T14:47:59.044Z,27.06
2023-03-20T14:50:30.880Z,28.31
2023-03-20T14:53:05.074Z,29.20
2023-03-20T14:55:35.471Z,29.09
2023-03-20T14:58:04.278Z,29.21
2023-03-20T15:00:36.205Z,31.30
2023-03-20T15:03:10.038Z,31.20
2023-03-20T15:05:39.858Z,31.88
2023-03-20T15:08:09.756Z,31.72
2023-03-20T15:10:39.446Z,32.08
2023-03-20T15:13:09.217Z,32.75
2023-03-20T15:15:37.271Z,32.93
2023-03-20T15:18:06.013Z,35.29
2023-03-20T15:20:37.366Z,35.00
2023-03-20T15:23:06.284Z,34.71
2023-03-20T15:25:37.892Z,36.13
2023-03-20T15:28:07.043Z,36.19
2023-03-20T15:30:38.237Z,37.32
2023-03-20T15:33:07.022Z,36.78
2023-03-20T15:35:38.232Z,36.89
2023-03-20T15:38:07.688Z,38.43
2023-03-20T15:40:50.047Z,38.53
2023-03-20T15:43:20.634Z,38.47
2023-03-20T15:45:48.644Z,39.30
2023-03-20T15:48:17.730Z,38.88
2023-03-20T15:50:49.425Z,39.92
2023-03-20T15:53:18.852Z,42.29
2023-03-20T15:55:49.863Z,41.62
2023-03-20T15:58:18.319Z,41.77
2023-03-20T16:00:47.478Z,42.12
2023-03-20T16:03:17.132Z,42.53
2023-03-20T16:05:45.936Z,42.65
2023-03-20T16:08:16.989Z,41.92
2023-03-20T16:10:45.456Z,42.36
2023-03-20T16:13:14.485Z,42.75
2023-03-20T16:15:42.559Z,43.44
2023-03-20T16:18:14.029Z,43.34
2023-03-20T16:20:45.435Z,43.76
2023-03-20T16:23:21.588Z,43.85
2023-03-20T16:25:49.683Z,42.97
2023-03-20T16:28:17.944Z,44.21
2023-03-20T16:30:45.833Z,43.57
2023-03-20T16:33:15.726Z,44.01
2023-03-20T16:35:45.639Z,43.72
2023-03-20T16:38:24.389Z,44.54
2023-03-20T16:40:55.364Z,44.84
2023-03-20T16:43:27.994Z,44.26
2023-03-20T16:45:57.009Z,44.10
2023-03-20T16:48:34.434Z,44.64
2023-03-20T16:51:04.319Z,44.88
2023-03-20T16:53:38.820Z,45.28
2023-03-20T16:56:11.966Z,46.09
2023-03-20T16:58:41.574Z,45.59
2023-03-20T17:01:13.051Z,45.65
2023-03-20T17:03:48.354Z,45.37
2023-03-20T17:06:35.756Z,46.17
2023-03-20T17:09:16.551Z,46.41
2023-03-20T17:11:47.344Z,46.15
2023-03-20T17:14:15.339Z,46.31
2023-03-20T17:16:44.251Z,46.50
2023-03-20T17:19:15.380Z,46.10
2023-03-20T17:21:43.467Z,46.24
2023-03-20T17:24:13.040Z,46.78
2023-03-20T17:26:42.216Z,47.11
2023-03-20T17:29:11.597Z,47.84
2023-03-20T17:31:39.937Z,47.38
2023-03-20T17:34:08.461Z,47.77
2023-03-20T17:36:36.680Z,46.52
2023-03-20T17:39:04.652Z,47.67
2023-03-20T17:41:34.110Z,47.35
2023-03-20T17:44:02.054Z,47.89
2023-03-20T17:46:31.556Z,48.61
2023-03-20T17:49:00.304Z,48.23
2023-03-20T17:51:28.329Z,48.89
2023-03-20T17:53:58.098Z,48.58
2023-03-20T17:56:30.295Z,48.31
2023-03-20T17:58:59.987Z,48.86
2023-03-20T18:01:30.401Z,48.36
2023-03-20T18:03:59.767Z,48.27
2023-03-20T18:06:29.519Z,48.78
2023-03-20T18:08:58.702Z,48.58
2023-03-20T18:11:27.102Z,48.61
2023-03-20T18:13:55.189Z,49.68
2023-03-20T18:16:25.587Z,49.81
2023-03-20T18:18:54.078Z,49.30
2023-03-20T18:21:22.622Z,48.70
2023-03-20T18:23:50.741Z,49.36
2023-03-20T18:26:19.999Z,49.21
2023-03-20T18:28:48.348Z,49.14
2023-03-20T18:31:19.051Z,49.36
2023-03-20T18:33:49.749Z,49.47
2023-03-20T18:36:18.628Z,49.82
2023-03-20T18:38:46.997Z,50.16
2023-03-20T18:41:15.671Z,50.24
2023-03-20T18:43:44.095Z,50.17
2023-03-20T18:46:14.188Z,50.27
2023-03-20T18:48:42.802Z,51.13
2023-03-20T18:51:12.206Z,50.88
2023-03-20T18:53:40.874Z,51.15
2023-03-20T18:56:13.098Z,50.19
2023-03-20T18:58:41.035Z,51.43
2023-03-20T19:01:11.381Z,50.68
2023-03-20T19:03:41.667Z,51.14
2023-03-20T19:06:14.646Z,51.13
2023-03-20T19:08:42.564Z,51.10
2023-03-20T19:11:15.333Z,50.54
2023-03-20T19:13:45.895Z,50.40
2023-03-20T19:16:20.531Z,50.38
2023-03-20T19:18:50.080Z,51.08
2023-03-20T19:21:19.870Z,50.99
2023-03-20T19:23:48.081Z,50.87
2023-03-20T19:26:16.873Z,50.52
2023-03-20T19:28:45.657Z,50.87
2023-03-20T19:31:14.017Z,50.66
2023-03-20T19:33:42.125Z,50.89
2023-03-20T19:36:20.399Z,50.68
2023-03-20T19:38:49.860Z,50.75
2023-03-20T19:41:19.921Z,50.69
2023-03-20T19:43:53.148Z,50.17
2023-03-20T19:46:38.525Z,50.74
2023-03-20T19:49:07.935Z,50.18
2023-03-20T19:51:36.125Z,50.78
2023-03-20T19:54:05.653Z,50.13
2023-03-20T19:56:34.723Z,50.34
2023-03-20T19:59:03.184Z,50.38
2023-03-20T20:01:31.473Z,50.11
2023-03-20T20:03:59.484Z,50.04
2023-03-20T20:06:31.605Z,49.90
2023-03-20T20:09:01.309Z,49.87
2023-03-20T20:11:30.909Z,50.13
2023-03-20T20:14:08.554Z,49.96
2023-03-20T20:16:37.806Z,49.86
2023-03-20T20:19:06.496Z,50.51
2023-03-20T20:24:22.914Z,50.81
2023-03-20T20:27:03.087Z,50.22
2023-03-20T20:29:40.823Z,50.96
2023-03-20T20:32:08.830Z,50.42
2023-03-20T20:40:18.120Z,50.20
2023-03-20T20:42:49.414Z,50.92
2023-03-20T20:45:17.354Z,50.72
2023-03-20T20:47:48.833Z,50.45
2023-03-20T20:50:18.352Z,49.80
2023-03-20T20:52:46.682Z,50.00
2023-03-20T20:55:22.845Z,49.95
2023-03-20T20:57:53.258Z,50.10
2023-03-20T21:00:27.399Z,50.07
2023-03-20T21:02:57.560Z,49.89
2023-03-20T21:05:31.357Z,49.85
2023-03-20T21:07:59.221Z,50.01
2023-03-20T21:10:27.128Z,49.92
2023-03-20T21:12:59.802Z,50.25
2023-03-20T21:15:28.045Z,50.52
2023-03-20T21:18:03.427Z,50.39
2023-03-20T21:20:34.032Z,50.22
2023-03-20T21:23:02.345Z,50.09
2023-03-20T21:25:40.110Z,50.50
2023-03-20T21:28:10.933Z,50.35
2023-03-20T21:30:44.220Z,50.50
2023-03-20T21:33:24.576Z,50.54
2023-03-20T21:35:53.768Z,50.41
2023-03-20T21:38:58.589Z,50.53
2023-03-20T21:41:10.901Z,50.52
2023-03-20T21:43:40.922Z,49.87
2023-03-20T22:03:09.986Z,50.34
2023-03-20T22:09:27.413Z,50.38
2023-03-20T22:25:59.771Z,50.46
2023-03-20T22:31:36.919Z,50.51
2023-03-20T22:37:37.520Z,50.76
2023-03-20T22:40:08.705Z,50.77
2023-03-20T22:45:04.585Z,51.49
2023-03-20T22:47:33.431Z,50.85
2023-03-20T22:50:02.801Z,50.91
2023-03-20T22:52:45.873Z,50.75
2023-03-20T22:55:16.825Z,51.13
2023-03-20T22:57:56.244Z,50.84
2023-03-20T23:00:31.695Z,51.33
2023-03-20T23:03:13.691Z,51.44
2023-03-20T23:05:46.736Z,51.08
2023-03-20T23:08:14.718Z,51.57
2023-03-20T23:10:44.091Z,51.26
2023-03-20T23:13:12.302Z,50.85
2023-03-20T23:15:40.298Z,50.70
2023-03-20T23:18:10.105Z,50.80
2023-03-20T23:20:38.231Z,51.44
2023-03-20T23:23:08.032Z,51.31
2023-03-20T23:25:39.739Z,51.60
2023-03-20T23:28:09.060Z,51.63
2023-03-20T23:30:45.431Z,51.53
2023-03-20T23:33:17.869Z,51.24
2023-03-20T23:35:46.474Z,51.22
2023-03-20T23:38:15.871Z,50.85
2023-03-20T23:40:49.143Z,51.28
2023-03-20T23:43:17.205Z,51.61
2023-03-20T23:45:45.538Z,51.35
2023-03-20T23:48:13.864Z,51.63
2023-03-20T23:50:52.338Z,51.36
2023-03-20T23:53:22.838Z,51.26
2023-03-20T23:55:52.158Z,51.30
2023-03-20T23:58:20.385Z,51.54
